Edgemont, Pennsylvania
Current Conditions -  °F | °C
As of 1:54 AM on Sunday 21 Dec 2014 (Local Time) from KPHL Reporting Station
Overcast Overcast  
Wind Chill:   Ceiling: 3500
Heat Index:   Visibility: 10mi
Dew Point: -5°   Wind: 0mph
Humidity: 66%   Direction: NA
Pressure: 30.31"   Gusts: NA
Location:  39.97°N, 75.45°W
Report Text: KPHL 210654Z 00000KT 10SM BKN035 OVC110 01/M05 A3031 RMK AO2 SLP262 T00061050
Loading
Personal Weather Stations






























Interactive Weather Map New forecast layout! Learn more

10-Day Weather Forecast

Advertisements
Track Severe Weather on mobile